createdAt,value
2019-05-22T00:01:24.152Z,83.80
2019-05-22T00:03:56.538Z,84.20
2019-05-22T00:06:28.855Z,83.40
2019-05-22T00:09:00.265Z,84.40
2019-05-22T00:11:31.677Z,81.70
2019-05-22T00:14:04.087Z,83.60
2019-05-22T00:16:36.354Z,83.00
2019-05-22T00:19:08.646Z,82.90
2019-05-22T00:21:40.908Z,82.50
2019-05-22T00:24:13.695Z,84.80
2019-05-22T00:26:46.462Z,83.30
2019-05-22T00:29:17.606Z,83.30
2019-05-22T00:31:49.704Z,83.50
2019-05-22T00:34:22.006Z,85.10
2019-05-22T00:36:53.249Z,84.90
2019-05-22T00:39:25.904Z,85.20
2019-05-22T00:41:57.562Z,84.10
2019-05-22T00:44:30.775Z,85.50
2019-05-22T00:47:03.144Z,85.20
2019-05-22T00:49:37.459Z,84.70
2019-05-22T00:52:09.702Z,84.90
2019-05-22T00:54:42.472Z,85.80
2019-05-22T00:57:14.866Z,83.80
2019-05-22T00:59:47.747Z,84.00
2019-05-22T01:02:32.558Z,83.40
2019-05-22T01:05:04.048Z,83.00
2019-05-22T01:07:36.555Z,83.60
2019-05-22T01:10:11.567Z,83.40
2019-05-22T01:12:44.892Z,83.40
2019-05-22T01:15:37.100Z,83.00
2019-05-22T01:18:11.388Z,82.90
2019-05-22T01:20:43.412Z,82.40
2019-05-22T01:23:21.588Z,82.00
2019-05-22T01:25:53.469Z,82.80
2019-05-22T01:28:25.972Z,82.30
2019-05-22T01:30:58.470Z,82.40
2019-05-22T01:33:31.939Z,83.00
2019-05-22T01:36:05.199Z,83.20
2019-05-22T01:38:37.464Z,83.70
2019-05-22T01:41:12.115Z,82.90
2019-05-22T01:43:47.790Z,82.70
2019-05-22T01:46:20.762Z,82.50
2019-05-22T01:48:55.293Z,81.80
2019-05-22T01:51:27.394Z,81.60
2019-05-22T01:54:01.235Z,81.60
2019-05-22T01:56:42.126Z,81.30
2019-05-22T01:59:13.759Z,81.10
2019-05-22T02:01:46.462Z,81.20
2019-05-22T02:04:18.851Z,81.20
2019-05-22T02:06:52.967Z,80.60
2019-05-22T02:09:28.125Z,80.00
2019-05-22T02:12:06.794Z,80.50
2019-05-22T02:14:36.750Z,78.90
2019-05-22T02:17:09.388Z,80.30
2019-05-22T02:19:41.163Z,80.80
2019-05-22T02:22:13.758Z,80.70
2019-05-22T02:24:47.259Z,79.00
2019-05-22T02:27:21.492Z,79.70
2019-05-22T02:29:53.879Z,80.30
2019-05-22T02:32:27.480Z,79.10
2019-05-22T02:34:58.922Z,78.60
2019-05-22T02:37:34.580Z,78.20
2019-05-22T02:40:12.561Z,78.80
2019-05-22T02:42:54.042Z,78.50
2019-05-22T02:45:25.867Z,79.10
2019-05-22T02:47:58.656Z,78.80
2019-05-22T02:50:31.360Z,79.10
2019-05-22T02:53:04.966Z,78.90
2019-05-22T02:55:38.592Z,79.40
2019-05-22T02:58:11.354Z,79.00
2019-05-22T03:00:46.834Z,79.20
2019-05-22T03:03:23.284Z,78.80
2019-05-22T03:05:56.475Z,79.10
2019-05-22T03:08:30.679Z,78.80
2019-05-22T03:11:05.742Z,80.00
2019-05-22T03:13:40.329Z,79.20
2019-05-22T03:16:12.215Z,79.90
2019-05-22T03:18:47.569Z,80.70
2019-05-22T03:21:20.572Z,79.70
2019-05-22T03:23:59.296Z,79.30
2019-05-22T03:26:33.896Z,80.10
2019-05-22T03:29:06.382Z,79.60
2019-05-22T03:31:38.731Z,79.50
2019-05-22T03:34:12.570Z,79.20
2019-05-22T03:36:55.203Z,78.70
2019-05-22T03:39:28.044Z,79.80
2019-05-22T03:42:03.343Z,79.50
2019-05-22T03:44:37.447Z,79.20
2019-05-22T03:47:10.125Z,79.00
2019-05-22T03:49:42.042Z,78.30
2019-05-22T03:52:15.661Z,78.10
2019-05-22T03:54:48.518Z,77.40
2019-05-22T03:57:22.012Z,77.40
2019-05-22T04:00:04.573Z,77.70
2019-05-22T04:02:45.279Z,77.50
2019-05-22T04:05:23.357Z,76.70
2019-05-22T04:07:59.417Z,76.50
2019-05-22T04:10:33.008Z,76.30
2019-05-22T04:13:04.104Z,76.10
2019-05-22T04:18:29.391Z,75.50
2019-05-22T04:21:11.981Z,75.60
2019-05-22T04:23:41.373Z,75.50
2019-05-22T04:26:17.842Z,75.40
2019-05-22T04:28:51.071Z,75.30
2019-05-22T04:31:25.020Z,75.00
2019-05-22T04:33:59.522Z,74.90
2019-05-22T04:36:30.939Z,74.40
2019-05-22T04:39:03.273Z,74.20
2019-05-22T04:41:34.500Z,74.30
2019-05-22T04:44:09.207Z,74.30
2019-05-22T04:46:41.321Z,74.30
2019-05-22T04:49:13.705Z,75.00
2019-05-22T04:51:46.597Z,74.60
2019-05-22T04:54:22.657Z,74.30
2019-05-22T04:56:55.385Z,73.70
2019-05-22T04:59:29.274Z,73.60
2019-05-22T05:02:00.630Z,73.50
2019-05-22T05:08:10.239Z,73.50
2019-05-22T05:10:41.528Z,73.20
2019-05-22T05:13:16.772Z,73.00
2019-05-22T05:15:48.650Z,72.80
2019-05-22T05:18:20.193Z,72.80
2019-05-22T05:20:55.586Z,72.90
2019-05-22T05:23:29.035Z,72.70
2019-05-22T05:26:00.658Z,73.00
2019-05-22T05:28:32.374Z,72.30
2019-05-22T05:31:16.927Z,71.90
2019-05-22T05:33:45.424Z,71.80
2019-05-22T05:36:18.756Z,71.60
2019-05-22T05:38:52.706Z,71.60
2019-05-22T05:41:25.663Z,71.60
2019-05-22T05:43:56.678Z,70.90
2019-05-22T05:46:29.348Z,70.80
2019-05-22T05:49:01.000Z,70.70
2019-05-22T05:51:34.434Z,70.60
2019-05-22T05:54:08.532Z,70.10
2019-05-22T05:56:42.538Z,69.60
2019-05-22T05:59:16.726Z,69.20
2019-05-22T06:01:49.097Z,69.60
2019-05-22T06:04:34.037Z,69.70
2019-05-22T06:07:01.969Z,68.70
2019-05-22T06:09:33.812Z,66.20
2019-05-22T06:12:06.652Z,67.10
2019-05-22T06:14:40.090Z,68.40
2019-05-22T06:17:14.080Z,68.70
2019-05-22T06:19:53.577Z,68.00
2019-05-22T06:28:57.253Z,67.70
2019-05-22T06:31:33.400Z,67.90
2019-05-22T06:34:04.764Z,68.40
2019-05-22T06:36:37.584Z,67.90
2019-05-22T06:39:14.143Z,67.80
2019-05-22T06:41:49.950Z,68.00
2019-05-22T06:44:25.747Z,67.50
2019-05-22T06:46:56.900Z,67.30
2019-05-22T06:49:30.194Z,67.50
2019-05-22T06:52:01.528Z,64.80
2019-05-22T06:54:35.202Z,65.90
2019-05-22T06:57:11.521Z,66.10
2019-05-22T06:59:43.145Z,66.30
2019-05-22T07:02:19.647Z,65.90
2019-05-22T07:04:54.599Z,66.50
2019-05-22T07:07:26.365Z,66.40
2019-05-22T07:09:58.011Z,66.50
2019-05-22T07:12:30.787Z,65.50
2019-05-22T07:15:05.787Z,66.10
2019-05-22T07:17:37.684Z,66.20
2019-05-22T07:20:09.946Z,66.20
2019-05-22T07:22:41.615Z,65.40
2019-05-22T07:25:13.544Z,65.50
2019-05-22T07:27:44.775Z,65.30
2019-05-22T07:30:16.328Z,65.80
2019-05-22T07:32:48.619Z,62.80
2019-05-22T07:35:20.026Z,64.00
2019-05-22T07:37:53.145Z,64.50
2019-05-22T07:40:24.363Z,64.30
2019-05-22T07:42:56.125Z,64.50
2019-05-22T07:45:30.061Z,63.80
2019-05-22T07:48:02.037Z,63.90
2019-05-22T07:54:17.865Z,63.60
2019-05-22T07:56:58.596Z,63.70
2019-05-22T07:59:30.087Z,64.10
2019-05-22T08:02:03.951Z,64.20
2019-05-22T08:04:36.126Z,65.20
2019-05-22T08:07:08.845Z,64.50
2019-05-22T08:09:40.801Z,64.90
2019-05-22T08:12:17.290Z,63.90
2019-05-22T08:14:50.198Z,64.30
2019-05-22T08:17:22.809Z,63.90
2019-05-22T08:26:54.270Z,63.30
2019-05-22T08:29:39.133Z,63.80
2019-05-22T08:32:11.032Z,64.10
2019-05-22T08:34:43.489Z,63.90
2019-05-22T08:37:27.915Z,63.90
2019-05-22T08:40:05.123Z,63.90
2019-05-22T08:42:45.159Z,64.30
2019-05-22T08:45:21.605Z,64.10
2019-05-22T08:47:53.656Z,63.60
2019-05-22T08:50:27.458Z,63.40
2019-05-22T08:52:58.674Z,63.70
2019-05-22T08:55:31.218Z,63.40
2019-05-22T09:01:44.876Z,63.80
2019-05-22T09:04:16.091Z,64.10
2019-05-22T09:06:47.044Z,64.00
2019-05-22T09:09:18.418Z,64.10
2019-05-22T09:11:55.263Z,63.70
2019-05-22T09:14:26.043Z,63.70
2019-05-22T09:16:57.331Z,63.20
2019-05-22T09:19:28.447Z,63.20
2019-05-22T09:21:59.981Z,63.30
2019-05-22T09:24:32.287Z,63.50
2019-05-22T09:27:04.057Z,62.90
2019-05-22T09:29:35.298Z,63.30
2019-05-22T09:32:37.703Z,62.80
2019-05-22T09:35:05.110Z,62.50
2019-05-22T09:37:37.527Z,62.60
2019-05-22T09:40:12.521Z,62.90
2019-05-22T09:42:44.369Z,62.60
2019-05-22T09:45:23.652Z,62.40
2019-05-22T09:47:59.073Z,62.70
2019-05-22T09:50:30.675Z,63.00
2019-05-22T09:53:02.723Z,61.90
2019-05-22T09:55:34.244Z,62.30
2019-05-22T09:58:05.529Z,62.90
2019-05-22T10:00:40.257Z,62.30
2019-05-22T10:03:11.849Z,61.90
2019-05-22T10:05:42.956Z,62.50
2019-05-22T10:08:20.656Z,61.90
2019-05-22T10:10:52.098Z,61.90
2019-05-22T10:13:31.324Z,61.70
2019-05-22T10:16:02.791Z,61.90
2019-05-22T10:18:37.270Z,61.90
2019-05-22T10:21:08.906Z,62.00
2019-05-22T10:23:48.471Z,61.30
2019-05-22T10:26:18.443Z,61.20
2019-05-22T10:28:50.364Z,61.50
2019-05-22T10:31:21.903Z,61.20
2019-05-22T10:33:59.868Z,61.20
2019-05-22T10:36:31.130Z,61.90
2019-05-22T10:39:04.772Z,61.90
2019-05-22T10:41:36.965Z,61.60
2019-05-22T10:44:08.058Z,61.80
2019-05-22T10:46:41.967Z,62.00
2019-05-22T10:49:13.083Z,62.10
2019-05-22T10:51:43.906Z,62.20
2019-05-22T10:54:18.307Z,62.40
2019-05-22T10:56:49.284Z,62.70
2019-05-22T10:59:20.382Z,62.90
2019-05-22T11:01:52.270Z,62.80
2019-05-22T11:04:25.871Z,62.80
2019-05-22T11:06:57.264Z,62.90
2019-05-22T11:09:28.571Z,62.90
2019-05-22T11:12:00.350Z,62.90
2019-05-22T11:14:31.625Z,62.60
2019-05-22T11:17:03.087Z,62.90
2019-05-22T11:19:35.123Z,63.20
2019-05-22T11:22:06.297Z,63.40
2019-05-22T11:24:42.021Z,63.40
2019-05-22T11:27:12.941Z,63.60
2019-05-22T11:29:44.699Z,63.60
2019-05-22T11:32:19.605Z,63.80
2019-05-22T11:34:51.181Z,63.80
2019-05-22T11:37:22.876Z,64.00
2019-05-22T11:39:57.764Z,65.60
2019-05-22T11:42:30.177Z,64.50
2019-05-22T11:45:01.311Z,64.90
2019-05-22T11:47:36.443Z,65.10
2019-05-22T11:50:12.018Z,65.00
2019-05-22T11:52:43.954Z,65.40
2019-05-22T11:55:15.553Z,65.20
2019-05-22T11:57:48.335Z,65.40
2019-05-22T12:00:24.850Z,65.50
2019-05-22T12:02:57.122Z,65.80
2019-05-22T12:05:28.505Z,65.60
2019-05-22T12:08:02.622Z,65.90
2019-05-22T12:10:33.965Z,66.10
2019-05-22T12:13:05.949Z,66.00
2019-05-22T12:15:40.503Z,66.10
2019-05-22T12:18:13.723Z,66.00
2019-05-22T12:20:48.016Z,66.40
2019-05-22T12:23:19.367Z,66.60
2019-05-22T12:25:50.396Z,66.70
2019-05-22T12:28:21.276Z,66.60
2019-05-22T12:30:52.506Z,66.50
2019-05-22T12:33:23.557Z,66.60
2019-05-22T12:35:57.309Z,66.90
2019-05-22T12:38:29.275Z,67.50
2019-05-22T12:41:00.527Z,67.50
2019-05-22T12:43:35.520Z,67.40
2019-05-22T12:46:06.509Z,67.90
2019-05-22T12:48:38.002Z,69.00
2019-05-22T12:51:09.149Z,68.10
2019-05-22T12:53:40.357Z,68.50
2019-05-22T12:56:11.530Z,68.40
2019-05-22T12:58:43.346Z,68.20
2019-05-22T13:01:16.117Z,67.80
2019-05-22T13:03:48.208Z,68.30
2019-05-22T13:06:19.281Z,68.40
2019-05-22T13:08:50.680Z,68.80
2019-05-22T13:11:21.803Z,68.60
2019-05-22T13:13:52.980Z,68.30
2019-05-22T13:16:23.818Z,68.80
2019-05-22T13:18:56.174Z,68.70
2019-05-22T13:21:29.809Z,69.00
2019-05-22T13:24:02.882Z,68.80
2019-05-22T13:26:36.303Z,68.30
2019-05-22T13:29:08.915Z,68.90
2019-05-22T13:31:40.303Z,68.90
2019-05-22T13:34:13.762Z,68.40
2019-05-22T13:36:45.196Z,69.00
2019-05-22T13:39:17.852Z,68.80
2019-05-22T13:41:49.514Z,70.10
2019-05-22T13:44:21.699Z,70.40
2019-05-22T13:46:53.331Z,71.40
2019-05-22T13:49:25.367Z,72.10
2019-05-22T13:51:56.430Z,71.40
2019-05-22T13:54:27.588Z,71.80
2019-05-22T13:56:59.228Z,71.00
2019-05-22T13:59:31.738Z,71.70
2019-05-22T14:02:02.846Z,70.60
2019-05-22T14:04:34.201Z,71.10
2019-05-22T14:07:07.508Z,71.30
2019-05-22T14:09:39.397Z,70.90
2019-05-22T14:12:11.101Z,70.00
2019-05-22T14:14:44.241Z,70.50
2019-05-22T14:17:15.490Z,70.90
2019-05-22T14:19:46.657Z,70.40
2019-05-22T14:22:18.814Z,71.20
2019-05-22T14:24:50.034Z,71.80
2019-05-22T14:27:21.028Z,71.20
2019-05-22T14:29:52.199Z,71.00
2019-05-22T14:32:29.940Z,71.90
2019-05-22T14:34:55.832Z,71.40
2019-05-22T14:37:28.135Z,71.40
2019-05-22T14:39:59.314Z,71.40
2019-05-22T14:42:30.684Z,71.00
2019-05-22T14:45:01.926Z,71.20
2019-05-22T14:47:33.423Z,71.90
2019-05-22T14:50:06.563Z,72.40
2019-05-22T14:52:38.935Z,72.00
2019-05-22T14:55:10.597Z,72.10
2019-05-22T14:57:42.316Z,73.20
2019-05-22T15:00:16.256Z,71.70
2019-05-22T15:02:53.438Z,71.00
2019-05-22T15:05:20.461Z,72.30
2019-05-22T15:07:51.566Z,72.10
2019-05-22T15:10:24.483Z,71.80
2019-05-22T15:12:55.713Z,71.60
2019-05-22T15:15:26.852Z,71.90
2019-05-22T15:17:58.360Z,71.30
2019-05-22T15:20:31.203Z,71.30
2019-05-22T15:23:02.475Z,71.30
2019-05-22T15:25:34.267Z,71.40
2019-05-22T15:28:07.822Z,71.20
2019-05-22T15:30:39.546Z,72.00
2019-05-22T15:33:11.491Z,73.10
2019-05-22T15:35:43.897Z,72.40
2019-05-22T15:38:16.329Z,72.10
2019-05-22T15:40:48.070Z,72.00
2019-05-22T15:43:19.719Z,72.00
2019-05-22T15:45:51.839Z,72.60
2019-05-22T15:48:25.428Z,73.30
2019-05-22T15:50:58.379Z,72.80
2019-05-22T15:53:30.469Z,73.10
2019-05-22T15:56:04.103Z,73.60
2019-05-22T15:58:37.023Z,73.20
2019-05-22T16:01:10.149Z,72.50
2019-05-22T16:03:44.001Z,72.80
2019-05-22T16:06:16.159Z,72.50
2019-05-22T16:08:48.401Z,73.00
2019-05-22T16:11:26.167Z,73.20
2019-05-22T16:13:59.626Z,72.60
2019-05-22T16:16:31.689Z,72.80
2019-05-22T16:19:06.126Z,72.00
2019-05-22T16:21:40.004Z,72.20
2019-05-22T16:24:13.630Z,73.20
2019-05-22T16:26:47.927Z,72.80
2019-05-22T16:29:18.377Z,73.30
2019-05-22T16:31:59.756Z,73.50
2019-05-22T16:34:32.123Z,74.20
2019-05-22T16:37:09.304Z,73.10
2019-05-22T16:39:41.908Z,72.80
2019-05-22T16:42:14.512Z,73.50
2019-05-22T16:44:56.178Z,73.20
2019-05-22T16:47:27.808Z,73.10
2019-05-22T16:49:59.867Z,72.50
2019-05-22T16:52:32.066Z,73.00
2019-05-22T16:55:03.776Z,73.20
2019-05-22T16:57:35.128Z,73.10
2019-05-22T17:00:09.115Z,73.30
2019-05-22T17:02:42.069Z,73.10
2019-05-22T17:05:15.154Z,73.10
2019-05-22T17:07:46.321Z,72.60
2019-05-22T17:10:18.371Z,72.90
2019-05-22T17:12:50.371Z,73.20
2019-05-22T17:15:23.052Z,72.90
2019-05-22T17:17:55.827Z,74.00
2019-05-22T17:20:28.354Z,74.50
2019-05-22T17:22:59.547Z,74.20
2019-05-22T17:25:31.649Z,74.60
2019-05-22T17:28:03.891Z,73.90
2019-05-22T17:30:35.961Z,74.00
2019-05-22T17:33:09.040Z,74.20
2019-05-22T17:35:44.027Z,74.10
2019-05-22T17:38:15.689Z,74.90
2019-05-22T17:40:47.464Z,74.60
2019-05-22T17:43:19.898Z,73.70
2019-05-22T17:45:51.145Z,74.00
2019-05-22T17:48:24.312Z,74.40
2019-05-22T17:50:55.993Z,75.00
2019-05-22T17:53:27.409Z,74.40
2019-05-22T17:55:59.115Z,74.90
2019-05-22T17:58:30.441Z,75.30
2019-05-22T18:01:02.965Z,75.40
2019-05-22T18:03:34.288Z,74.90
2019-05-22T18:06:06.801Z,75.00
2019-05-22T18:08:38.246Z,74.80
2019-05-22T18:11:09.854Z,75.30
2019-05-22T18:13:44.333Z,74.50
2019-05-22T18:16:16.322Z,75.10
2019-05-22T18:18:47.374Z,76.20
2019-05-22T18:21:24.153Z,76.50
2019-05-22T18:23:55.396Z,76.30
2019-05-22T18:26:29.646Z,76.60
2019-05-22T18:29:00.945Z,76.20
2019-05-22T18:31:31.797Z,76.00
2019-05-22T18:34:02.827Z,75.90
2019-05-22T18:36:33.645Z,76.00
2019-05-22T18:39:05.353Z,76.00
2019-05-22T18:41:36.426Z,75.80
2019-05-22T18:44:07.387Z,76.30
2019-05-22T18:46:38.754Z,74.50
2019-05-22T18:49:09.847Z,75.30
2019-05-22T18:51:41.534Z,75.70
2019-05-22T18:54:12.719Z,76.30
2019-05-22T18:56:43.913Z,75.50
2019-05-22T18:59:14.684Z,75.50
2019-05-22T19:01:45.838Z,74.90
2019-05-22T19:04:16.992Z,75.20
2019-05-22T19:06:48.060Z,75.30
2019-05-22T19:09:18.934Z,76.40
2019-05-22T19:11:49.947Z,75.70
2019-05-22T19:14:21.225Z,76.00
2019-05-22T19:16:52.456Z,75.40
2019-05-22T19:19:27.258Z,75.40
2019-05-22T19:21:55.826Z,75.40
2019-05-22T19:24:26.865Z,75.40
2019-05-22T19:26:57.962Z,75.80
2019-05-22T19:29:28.996Z,75.60
2019-05-22T19:31:59.906Z,75.60
2019-05-22T19:34:32.229Z,75.90
2019-05-22T19:37:03.490Z,76.70
2019-05-22T19:39:35.166Z,76.40
2019-05-22T19:42:07.515Z,75.50
2019-05-22T19:44:38.731Z,75.40
2019-05-22T19:47:14.306Z,75.20
2019-05-22T19:49:46.662Z,75.30
2019-05-22T19:52:32.241Z,75.70
2019-05-22T19:54:56.296Z,75.30
2019-05-22T19:57:27.304Z,75.30
2019-05-22T20:00:02.349Z,75.30
2019-05-22T20:02:34.260Z,75.20
2019-05-22T20:05:07.973Z,75.30
2019-05-22T20:07:39.893Z,75.50
2019-05-22T20:10:12.577Z,75.40
2019-05-22T20:12:45.870Z,76.00
2019-05-22T20:15:17.124Z,75.60
2019-05-22T20:17:48.429Z,76.90
2019-05-22T20:20:21.379Z,76.50
2019-05-22T20:22:53.616Z,76.60
2019-05-22T20:25:24.695Z,76.20
2019-05-22T20:27:56.197Z,75.90
2019-05-22T20:30:28.085Z,76.40
2019-05-22T20:32:59.211Z,76.40
2019-05-22T20:35:30.613Z,76.50
2019-05-22T20:38:02.182Z,76.80
2019-05-22T20:40:33.291Z,76.70
2019-05-22T20:43:05.190Z,76.10
2019-05-22T20:45:38.053Z,75.70
2019-05-22T20:48:13.142Z,76.00
2019-05-22T20:50:45.617Z,76.70
2019-05-22T20:53:18.457Z,76.30
2019-05-22T20:55:50.808Z,76.50
2019-05-22T20:58:24.121Z,76.60
2019-05-22T21:00:56.850Z,76.20
2019-05-22T21:03:27.501Z,75.90
2019-05-22T21:05:59.833Z,76.80
2019-05-22T21:08:31.917Z,77.10
2019-05-22T21:11:04.334Z,77.30
2019-05-22T21:13:35.848Z,77.30
2019-05-22T21:16:08.988Z,77.50
2019-05-22T21:18:41.485Z,77.10
2019-05-22T21:21:13.128Z,76.60
2019-05-22T21:23:45.341Z,77.20
2019-05-22T21:26:16.959Z,78.20
2019-05-22T21:28:49.124Z,78.40
2019-05-22T21:31:21.272Z,78.00
2019-05-22T21:33:53.004Z,78.50
2019-05-22T21:36:25.407Z,78.40
2019-05-22T21:38:56.850Z,77.10
2019-05-22T21:41:27.911Z,77.90
2019-05-22T21:43:59.207Z,78.00
2019-05-22T21:46:30.914Z,78.10
2019-05-22T21:49:02.885Z,78.40
2019-05-22T21:51:34.082Z,78.00
2019-05-22T21:54:07.022Z,77.50
2019-05-22T21:56:38.299Z,77.90
2019-05-22T21:59:13.315Z,79.00
2019-05-22T22:01:47.805Z,78.90
2019-05-22T22:04:21.952Z,79.30
2019-05-22T22:06:55.439Z,79.10
2019-05-22T22:09:27.912Z,79.30
2019-05-22T22:11:59.875Z,79.00
2019-05-22T22:14:32.097Z,78.40
2019-05-22T22:17:03.620Z,78.40
2019-05-22T22:19:35.742Z,78.00
2019-05-22T22:22:08.257Z,78.50
2019-05-22T22:24:39.587Z,78.70
2019-05-22T22:27:11.461Z,78.60
2019-05-22T22:29:47.967Z,78.30
2019-05-22T22:32:20.613Z,77.60
2019-05-22T22:34:53.031Z,80.30
2019-05-22T22:37:25.021Z,80.40
2019-05-22T22:39:57.938Z,79.60
2019-05-22T22:42:30.877Z,79.90
2019-05-22T22:45:02.192Z,79.50
2019-05-22T22:47:35.481Z,80.10
2019-05-22T22:50:09.590Z,80.00
2019-05-22T22:52:41.927Z,79.70
2019-05-22T22:55:15.363Z,80.00
2019-05-22T22:57:48.120Z,80.00
2019-05-22T23:00:21.005Z,80.30
2019-05-22T23:02:53.139Z,79.70
2019-05-22T23:05:27.403Z,80.30
2019-05-22T23:07:59.883Z,79.80
2019-05-22T23:10:32.327Z,79.90
2019-05-22T23:13:05.056Z,79.70
2019-05-22T23:15:36.307Z,79.40
2019-05-22T23:18:07.483Z,79.70
2019-05-22T23:20:37.580Z,79.20
2019-05-22T23:23:08.411Z,78.80
2019-05-22T23:25:41.265Z,79.70
2019-05-22T23:28:12.306Z,79.90
2019-05-22T23:30:43.461Z,80.10
2019-05-22T23:33:14.702Z,79.80
2019-05-22T23:35:45.767Z,79.60
2019-05-22T23:38:18.454Z,78.90
2019-05-22T23:40:49.627Z,78.20
2019-05-22T23:43:21.592Z,78.20
2019-05-22T23:45:52.819Z,78.20
2019-05-22T23:48:25.512Z,79.80
2019-05-22T23:50:57.592Z,79.20
2019-05-22T23:53:29.837Z,78.60
2019-05-22T23:56:04.099Z,78.70
2019-05-22T23:58:49.863Z,79.00
